sensor_id;sensor_type;location;lat;lon;timestamp;noise_LAeq;noise_LA_min;noise_LA_max;noise_LA01;noise_LA95
67900;Laerm;54700;51.796;10.956;2022-07-23T00:00:19;28.65;27.00;40.74;;
67900;Laerm;54700;51.796;10.956;2022-07-23T00:02:47;28.89;27.28;39.56;;
67900;Laerm;54700;51.796;10.956;2022-07-23T00:05:14;52.06;27.48;68.77;;
67900;Laerm;54700;51.796;10.956;2022-07-23T00:07:41;30.23;27.26;39.81;;
67900;Laerm;54700;51.796;10.956;2022-07-23T00:10:08;28.39;26.78;38.15;;
67900;Laerm;54700;51.796;10.956;2022-07-23T00:12:35;28.62;26.99;38.93;;
67900;Laerm;54700;51.796;10.956;2022-07-23T00:15:03;28.71;27.05;38.85;;
67900;Laerm;54700;51.796;10.956;2022-07-23T00:17:30;28.66;27.01;38.55;;
67900;Laerm;54700;51.796;10.956;2022-07-23T00:19:58;29.17;27.25;41.17;;
67900;Laerm;54700;51.796;10.956;2022-07-23T00:22:24;29.00;27.05;40.84;;
67900;Laerm;54700;51.796;10.956;2022-07-23T00:24:53;47.29;27.17;64.91;;
67900;Laerm;54700;51.796;10.956;2022-07-23T00:27:19;49.24;27.69;64.85;;
67900;Laerm;54700;51.796;10.956;2022-07-23T00:29:46;34.72;31.15;48.95;;
67900;Laerm;54700;51.796;10.956;2022-07-23T00:32:13;32.95;29.85;49.19;;
67900;Laerm;54700;51.796;10.956;2022-07-23T00:34:39;48.76;29.01;64.72;;
67900;Laerm;54700;51.796;10.956;2022-07-23T00:37:08;52.81;28.90;70.02;;
67900;Laerm;54700;51.796;10.956;2022-07-23T00:39:34;38.43;30.06;55.73;;
67900;Laerm;54700;51.796;10.956;2022-07-23T00:42:01;54.09;37.26;67.45;;
67900;Laerm;54700;51.796;10.956;2022-07-23T00:44:28;39.42;33.11;53.23;;
67900;Laerm;54700;51.796;10.956;2022-07-23T00:46:57;53.86;29.35;71.05;;
67900;Laerm;54700;51.796;10.956;2022-07-23T00:49:27;43.43;34.56;56.07;;
67900;Laerm;54700;51.796;10.956;2022-07-23T00:51:54;44.37;41.00;59.84;;
67900;Laerm;54700;51.796;10.956;2022-07-23T00:54:25;49.01;43.78;68.53;;
67900;Laerm;54700;51.796;10.956;2022-07-23T00:56:53;54.79;43.32;69.41;;
67900;Laerm;54700;51.796;10.956;2022-07-23T00:59:20;48.11;43.15;57.49;;
67900;Laerm;54700;51.796;10.956;2022-07-23T01:01:47;50.82;48.29;58.08;;
67900;Laerm;54700;51.796;10.956;2022-07-23T01:04:14;54.17;50.11;66.09;;
67900;Laerm;54700;51.796;10.956;2022-07-23T01:06:42;53.14;50.61;63.68;;
67900;Laerm;54700;51.796;10.956;2022-07-23T01:09:09;54.33;51.33;65.72;;
67900;Laerm;54700;51.796;10.956;2022-07-23T01:11:38;53.18;50.28;64.04;;
67900;Laerm;54700;51.796;10.956;2022-07-23T01:14:09;60.59;53.98;73.98;;
67900;Laerm;54700;51.796;10.956;2022-07-23T01:16:35;61.27;52.16;74.84;;
67900;Laerm;54700;51.796;10.956;2022-07-23T01:19:02;52.99;49.28;65.50;;
67900;Laerm;54700;51.796;10.956;2022-07-23T01:21:34;51.52;48.24;62.35;;
67900;Laerm;54700;51.796;10.956;2022-07-23T01:24:03;53.52;50.79;64.83;;
67900;Laerm;54700;51.796;10.956;2022-07-23T01:26:30;54.01;50.07;68.00;;
67900;Laerm;54700;51.796;10.956;2022-07-23T01:28:57;54.53;50.69;75.65;;
67900;Laerm;54700;51.796;10.956;2022-07-23T01:31:24;59.61;47.30;74.26;;
67900;Laerm;54700;51.796;10.956;2022-07-23T01:33:51;57.71;48.37;72.77;;
67900;Laerm;54700;51.796;10.956;2022-07-23T01:36:17;56.24;51.06;78.31;;
67900;Laerm;54700;51.796;10.956;2022-07-23T01:38:44;52.65;49.03;65.90;;
67900;Laerm;54700;51.796;10.956;2022-07-23T01:41:12;51.36;46.63;61.94;;
67900;Laerm;54700;51.796;10.956;2022-07-23T01:43:39;50.52;46.75;72.20;;
67900;Laerm;54700;51.796;10.956;2022-07-23T01:46:05;51.09;47.49;67.76;;
67900;Laerm;54700;51.796;10.956;2022-07-23T01:48:32;49.05;43.95;63.71;;
67900;Laerm;54700;51.796;10.956;2022-07-23T01:50:59;50.12;46.24;65.89;;
67900;Laerm;54700;51.796;10.956;2022-07-23T01:53:25;49.39;45.06;60.05;;
67900;Laerm;54700;51.796;10.956;2022-07-23T01:55:52;48.68;44.75;63.50;;
67900;Laerm;54700;51.796;10.956;2022-07-23T01:58:20;54.89;45.13;68.84;;
67900;Laerm;54700;51.796;10.956;2022-07-23T02:00:47;51.41;48.07;69.69;;
67900;Laerm;54700;51.796;10.956;2022-07-23T02:03:14;50.64;47.44;66.27;;
67900;Laerm;54700;51.796;10.956;2022-07-23T02:05:40;47.74;42.21;62.23;;
67900;Laerm;54700;51.796;10.956;2022-07-23T02:08:07;45.56;40.09;63.50;;
67900;Laerm;54700;51.796;10.956;2022-07-23T02:10:34;46.42;38.85;62.56;;
67900;Laerm;54700;51.796;10.956;2022-07-23T02:13:00;45.58;37.32;59.77;;
67900;Laerm;54700;51.796;10.956;2022-07-23T02:15:28;52.44;35.38;66.36;;
67900;Laerm;54700;51.796;10.956;2022-07-23T02:17:55;41.88;33.54;58.37;;
67900;Laerm;54700;51.796;10.956;2022-07-23T02:20:22;40.11;32.58;51.68;;
67900;Laerm;54700;51.796;10.956;2022-07-23T02:22:49;55.50;32.96;68.48;;
67900;Laerm;54700;51.796;10.956;2022-07-23T02:25:15;54.34;31.06;69.82;;
67900;Laerm;54700;51.796;10.956;2022-07-23T02:27:42;37.56;30.95;52.56;;
67900;Laerm;54700;51.796;10.956;2022-07-23T02:30:10;54.51;30.38;67.58;;
67900;Laerm;54700;51.796;10.956;2022-07-23T02:32:38;54.56;30.15;69.41;;
67900;Laerm;54700;51.796;10.956;2022-07-23T02:35:07;54.22;30.19;66.58;;
67900;Laerm;54700;51.796;10.956;2022-07-23T02:37:33;39.90;32.59;49.40;;
67900;Laerm;54700;51.796;10.956;2022-07-23T02:40:00;37.14;30.40;53.67;;
67900;Laerm;54700;51.796;10.956;2022-07-23T02:42:27;41.94;30.83;56.25;;
67900;Laerm;54700;51.796;10.956;2022-07-23T02:44:53;57.34;45.04;69.40;;
67900;Laerm;54700;51.796;10.956;2022-07-23T02:47:20;50.71;42.09;68.12;;
67900;Laerm;54700;51.796;10.956;2022-07-23T02:49:48;52.63;42.35;80.96;;
67900;Laerm;54700;51.796;10.956;2022-07-23T02:52:15;57.07;54.19;75.15;;
67900;Laerm;54700;51.796;10.956;2022-07-23T02:54:41;57.89;53.76;74.49;;
67900;Laerm;54700;51.796;10.956;2022-07-23T02:57:08;56.21;53.45;76.67;;
67900;Laerm;54700;51.796;10.956;2022-07-23T02:59:34;59.64;53.97;73.95;;
67900;Laerm;54700;51.796;10.956;2022-07-23T03:02:01;60.17;51.00;73.00;;
67900;Laerm;54700;51.796;10.956;2022-07-23T03:04:28;56.73;51.14;73.98;;
67900;Laerm;54700;51.796;10.956;2022-07-23T03:06:56;54.54;52.18;69.88;;
67900;Laerm;54700;51.796;10.956;2022-07-23T03:09:22;56.58;50.15;75.54;;
67900;Laerm;54700;51.796;10.956;2022-07-23T03:11:49;53.64;49.51;71.83;;
67900;Laerm;54700;51.796;10.956;2022-07-23T03:14:16;58.86;53.95;74.29;;
67900;Laerm;54700;51.796;10.956;2022-07-23T03:16:42;57.34;53.57;72.63;;
67900;Laerm;54700;51.796;10.956;2022-07-23T03:19:09;57.06;53.04;70.46;;
67900;Laerm;54700;51.796;10.956;2022-07-23T03:21:36;60.28;54.48;76.98;;
67900;Laerm;54700;51.796;10.956;2022-07-23T03:24:07;59.38;55.80;73.61;;
67900;Laerm;54700;51.796;10.956;2022-07-23T03:26:34;56.98;52.76;66.92;;
67900;Laerm;54700;51.796;10.956;2022-07-23T03:29:02;53.50;50.43;66.17;;
67900;Laerm;54700;51.796;10.956;2022-07-23T03:31:29;61.47;47.95;71.49;;
67900;Laerm;54700;51.796;10.956;2022-07-23T03:33:55;59.71;45.68;76.12;;
67900;Laerm;54700;51.796;10.956;2022-07-23T03:36:22;58.74;45.88;70.67;;
67900;Laerm;54700;51.796;10.956;2022-07-23T03:38:49;61.12;49.48;70.92;;
67900;Laerm;54700;51.796;10.956;2022-07-23T03:41:17;56.50;51.51;74.90;;
67900;Laerm;54700;51.796;10.956;2022-07-23T03:43:44;53.92;49.38;70.55;;
67900;Laerm;54700;51.796;10.956;2022-07-23T03:46:11;57.54;48.45;77.19;;
67900;Laerm;54700;51.796;10.956;2022-07-23T03:48:38;58.19;48.77;74.14;;
67900;Laerm;54700;51.796;10.956;2022-07-23T03:51:05;59.45;49.54;71.92;;
67900;Laerm;54700;51.796;10.956;2022-07-23T03:53:31;59.07;51.67;77.75;;
67900;Laerm;54700;51.796;10.956;2022-07-23T03:55:58;61.76;52.30;72.44;;
67900;Laerm;54700;51.796;10.956;2022-07-23T03:58:26;62.73;54.56;85.43;;
67900;Laerm;54700;51.796;10.956;2022-07-23T04:00:53;58.62;54.93;76.42;;
67900;Laerm;54700;51.796;10.956;2022-07-23T04:03:20;57.61;54.39;74.76;;
67900;Laerm;54700;51.796;10.956;2022-07-23T04:05:46;60.47;54.78;77.35;;
67900;Laerm;54700;51.796;10.956;2022-07-23T04:08:13;62.90;55.00;74.81;;
67900;Laerm;54700;51.796;10.956;2022-07-23T04:10:40;60.58;55.27;73.83;;
67900;Laerm;54700;51.796;10.956;2022-07-23T04:13:06;63.62;54.36;77.27;;
67900;Laerm;54700;51.796;10.956;2022-07-23T04:15:34;60.89;51.62;72.61;;
67900;Laerm;54700;51.796;10.956;2022-07-23T04:18:03;59.61;49.52;72.62;;
67900;Laerm;54700;51.796;10.956;2022-07-23T04:20:29;58.11;46.67;73.71;;
67900;Laerm;54700;51.796;10.956;2022-07-23T04:22:56;59.72;43.78;72.78;;
67900;Laerm;54700;51.796;10.956;2022-07-23T04:25:23;61.01;42.83;72.44;;
67900;Laerm;54700;51.796;10.956;2022-07-23T04:27:49;48.22;40.28;65.32;;
67900;Laerm;54700;51.796;10.956;2022-07-23T04:30:16;52.46;38.18;69.76;;
67900;Laerm;54700;51.796;10.956;2022-07-23T04:32:44;56.75;39.37;71.94;;
67900;Laerm;54700;51.796;10.956;2022-07-23T04:35:11;56.94;37.08;73.71;;
67900;Laerm;54700;51.796;10.956;2022-07-23T04:37:37;56.47;35.31;68.73;;
67900;Laerm;54700;51.796;10.956;2022-07-23T04:40:05;55.67;35.11;71.79;;
67900;Laerm;54700;51.796;10.956;2022-07-23T04:42:32;45.92;34.39;59.69;;
67900;Laerm;54700;51.796;10.956;2022-07-23T04:44:58;57.27;33.38;71.40;;
67900;Laerm;54700;51.796;10.956;2022-07-23T04:47:25;53.73;33.54;70.15;;
67900;Laerm;54700;51.796;10.956;2022-07-23T04:49:53;56.58;33.06;69.11;;
67900;Laerm;54700;51.796;10.956;2022-07-23T04:52:19;38.50;31.03;50.66;;
67900;Laerm;54700;51.796;10.956;2022-07-23T04:54:46;53.20;32.17;69.48;;
67900;Laerm;54700;51.796;10.956;2022-07-23T04:57:13;59.17;34.73;70.71;;
67900;Laerm;54700;51.796;10.956;2022-07-23T04:59:39;57.28;31.54;72.35;;
67900;Laerm;54700;51.796;10.956;2022-07-23T05:02:06;52.34;30.85;66.70;;
67900;Laerm;54700;51.796;10.956;2022-07-23T05:04:33;57.24;31.04;67.48;;
67900;Laerm;54700;51.796;10.956;2022-07-23T05:07:01;58.08;30.38;69.63;;
67900;Laerm;54700;51.796;10.956;2022-07-23T05:09:27;52.99;32.66;67.94;;
67900;Laerm;54700;51.796;10.956;2022-07-23T05:11:54;49.68;30.14;66.37;;
67900;Laerm;54700;51.796;10.956;2022-07-23T05:14:21;58.82;32.83;70.31;;
67900;Laerm;54700;51.796;10.956;2022-07-23T05:16:47;59.62;30.42;73.95;;
67900;Laerm;54700;51.796;10.956;2022-07-23T05:19:14;58.78;30.90;72.44;;
67900;Laerm;54700;51.796;10.956;2022-07-23T05:21:41;58.66;30.72;69.94;;
67900;Laerm;54700;51.796;10.956;2022-07-23T05:24:09;58.08;31.59;70.29;;
67900;Laerm;54700;51.796;10.956;2022-07-23T05:26:35;58.22;32.17;73.63;;
67900;Laerm;54700;51.796;10.956;2022-07-23T05:29:02;63.08;36.82;80.81;;
67900;Laerm;54700;51.796;10.956;2022-07-23T05:31:29;56.88;29.91;71.54;;
67900;Laerm;54700;51.796;10.956;2022-07-23T05:33:55;59.26;29.47;70.63;;
67900;Laerm;54700;51.796;10.956;2022-07-23T05:36:22;57.75;29.11;70.29;;
67900;Laerm;54700;51.796;10.956;2022-07-23T05:38:49;55.42;29.78;68.68;;
67900;Laerm;54700;51.796;10.956;2022-07-23T05:41:17;59.62;30.48;73.53;;
67900;Laerm;54700;51.796;10.956;2022-07-23T05:43:43;60.95;31.29;71.03;;
67900;Laerm;54700;51.796;10.956;2022-07-23T05:46:10;62.59;36.02;74.58;;
67900;Laerm;54700;51.796;10.956;2022-07-23T05:48:37;58.48;37.66;70.13;;
67900;Laerm;54700;51.796;10.956;2022-07-23T05:51:03;60.47;35.95;72.14;;
67900;Laerm;54700;51.796;10.956;2022-07-23T05:53:32;60.69;34.24;71.22;;
67900;Laerm;54700;51.796;10.956;2022-07-23T05:55:59;60.17;33.68;71.79;;
67900;Laerm;54700;51.796;10.956;2022-07-23T05:58:27;55.03;30.80;68.72;;
67900;Laerm;54700;51.796;10.956;2022-07-23T06:00:54;59.18;30.39;71.50;;
67900;Laerm;54700;51.796;10.956;2022-07-23T06:03:21;60.69;39.60;71.30;;
67900;Laerm;54700;51.796;10.956;2022-07-23T06:05:47;60.66;31.71;71.75;;
67900;Laerm;54700;51.796;10.956;2022-07-23T06:08:14;61.42;32.46;71.00;;
67900;Laerm;54700;51.796;10.956;2022-07-23T06:10:41;60.90;31.14;73.88;;
67900;Laerm;54700;51.796;10.956;2022-07-23T06:13:07;63.07;31.59;77.60;;
67900;Laerm;54700;51.796;10.956;2022-07-23T06:15:36;58.65;30.80;70.63;;
67900;Laerm;54700;51.796;10.956;2022-07-23T06:18:03;59.68;33.26;69.10;;
67900;Laerm;54700;51.796;10.956;2022-07-23T06:20:29;57.64;33.20;71.72;;
67900;Laerm;54700;51.796;10.956;2022-07-23T06:22:56;57.38;31.70;68.65;;
67900;Laerm;54700;51.796;10.956;2022-07-23T06:25:23;65.01;40.89;72.47;;
67900;Laerm;54700;51.796;10.956;2022-07-23T06:27:50;61.58;39.54;73.31;;
67900;Laerm;54700;51.796;10.956;2022-07-23T06:30:17;57.25;31.78;70.77;;
67900;Laerm;54700;51.796;10.956;2022-07-23T06:32:46;61.74;34.15;72.68;;
67900;Laerm;54700;51.796;10.956;2022-07-23T06:35:13;58.55;30.74;68.30;;
67900;Laerm;54700;51.796;10.956;2022-07-23T06:37:40;60.98;34.99;70.72;;
67900;Laerm;54700;51.796;10.956;2022-07-23T06:40:07;57.86;30.92;71.19;;
67900;Laerm;54700;51.796;10.956;2022-07-23T06:42:34;65.61;32.68;79.44;;
67900;Laerm;54700;51.796;10.956;2022-07-23T06:45:02;61.41;33.83;71.80;;
67900;Laerm;54700;51.796;10.956;2022-07-23T06:47:29;61.13;35.33;70.83;;
67900;Laerm;54700;51.796;10.956;2022-07-23T06:49:57;60.09;34.68;72.79;;
67900;Laerm;54700;51.796;10.956;2022-07-23T06:52:24;63.66;45.82;72.03;;
67900;Laerm;54700;51.796;10.956;2022-07-23T06:54:51;59.65;34.06;68.95;;
67900;Laerm;54700;51.796;10.956;2022-07-23T06:57:18;63.47;37.33;82.68;;
67900;Laerm;54700;51.796;10.956;2022-07-23T06:59:44;60.97;37.47;70.27;;
67900;Laerm;54700;51.796;10.956;2022-07-23T07:02:11;62.08;44.19;72.40;;
67900;Laerm;54700;51.796;10.956;2022-07-23T07:04:38;58.38;35.29;68.20;;
67900;Laerm;54700;51.796;10.956;2022-07-23T07:07:06;63.13;44.34;72.72;;
67900;Laerm;54700;51.796;10.956;2022-07-23T07:09:32;62.70;33.11;79.27;;
67900;Laerm;54700;51.796;10.956;2022-07-23T07:11:59;61.25;40.47;72.14;;
67900;Laerm;54700;51.796;10.956;2022-07-23T07:14:29;61.49;31.26;71.15;;
67900;Laerm;54700;51.796;10.956;2022-07-23T07:16:58;59.61;33.47;69.94;;
67900;Laerm;54700;51.796;10.956;2022-07-23T07:19:25;59.61;32.59;68.80;;
67900;Laerm;54700;51.796;10.956;2022-07-23T07:21:52;62.98;37.77;70.98;;
67900;Laerm;54700;51.796;10.956;2022-07-23T07:24:20;60.69;38.22;72.20;;
67900;Laerm;54700;51.796;10.956;2022-07-23T07:26:47;61.19;35.06;70.53;;
67900;Laerm;54700;51.796;10.956;2022-07-23T07:29:13;62.43;35.15;73.17;;
67900;Laerm;54700;51.796;10.956;2022-07-23T07:31:40;65.37;41.74;76.97;;
67900;Laerm;54700;51.796;10.956;2022-07-23T07:34:07;62.48;34.38;71.84;;
67900;Laerm;54700;51.796;10.956;2022-07-23T07:36:34;66.12;34.58;80.39;;
67900;Laerm;54700;51.796;10.956;2022-07-23T07:39:02;61.74;42.16;70.31;;
67900;Laerm;54700;51.796;10.956;2022-07-23T07:41:30;62.88;38.61;73.11;;
67900;Laerm;54700;51.796;10.956;2022-07-23T07:43:57;60.92;35.54;70.82;;
67900;Laerm;54700;51.796;10.956;2022-07-23T07:46:24;62.09;36.17;71.58;;
67900;Laerm;54700;51.796;10.956;2022-07-23T07:48:52;62.82;36.09;76.67;;
67900;Laerm;54700;51.796;10.956;2022-07-23T07:51:19;62.04;39.11;72.21;;
67900;Laerm;54700;51.796;10.956;2022-07-23T07:53:46;64.33;46.58;78.46;;
67900;Laerm;54700;51.796;10.956;2022-07-23T07:56:13;61.45;34.50;71.40;;
67900;Laerm;54700;51.796;10.956;2022-07-23T07:58:40;65.64;35.87;78.70;;
67900;Laerm;54700;51.796;10.956;2022-07-23T08:01:07;59.38;34.27;71.05;;
67900;Laerm;54700;51.796;10.956;2022-07-23T08:03:34;64.22;43.74;72.03;;
67900;Laerm;54700;51.796;10.956;2022-07-23T08:06:00;61.05;35.35;71.66;;
67900;Laerm;54700;51.796;10.956;2022-07-23T08:08:27;62.32;44.26;70.27;;
67900;Laerm;54700;51.796;10.956;2022-07-23T08:10:54;62.82;44.29;72.09;;
67900;Laerm;54700;51.796;10.956;2022-07-23T08:13:20;63.23;41.04;71.45;;
67900;Laerm;54700;51.796;10.956;2022-07-23T08:15:49;62.60;37.45;73.15;;
67900;Laerm;54700;51.796;10.956;2022-07-23T08:18:15;63.65;40.55;73.17;;
67900;Laerm;54700;51.796;10.956;2022-07-23T08:20:42;63.74;39.21;74.93;;
67900;Laerm;54700;51.796;10.956;2022-07-23T08:23:09;62.83;48.64;69.78;;
67900;Laerm;54700;51.796;10.956;2022-07-23T08:25:38;63.92;43.13;76.30;;
67900;Laerm;54700;51.796;10.956;2022-07-23T08:28:06;62.28;35.39;70.87;;
67900;Laerm;54700;51.796;10.956;2022-07-23T08:30:33;67.28;47.98;78.26;;
67900;Laerm;54700;51.796;10.956;2022-07-23T08:33:03;62.96;45.05;70.27;;
67900;Laerm;54700;51.796;10.956;2022-07-23T08:35:33;61.50;38.94;70.90;;
67900;Laerm;54700;51.796;10.956;2022-07-23T08:38:02;61.90;36.79;69.55;;
67900;Laerm;54700;51.796;10.956;2022-07-23T08:40:30;64.11;51.53;72.82;;
67900;Laerm;54700;51.796;10.956;2022-07-23T08:42:57;62.95;39.59;72.25;;
67900;Laerm;54700;51.796;10.956;2022-07-23T08:45:26;61.93;42.80;70.55;;
67900;Laerm;54700;51.796;10.956;2022-07-23T08:47:55;62.99;43.40;72.77;;
67900;Laerm;54700;51.796;10.956;2022-07-23T08:50:25;63.70;44.24;71.65;;
67900;Laerm;54700;51.796;10.956;2022-07-23T08:52:53;63.96;42.68;71.87;;
67900;Laerm;54700;51.796;10.956;2022-07-23T08:55:21;62.17;41.88;74.09;;
67900;Laerm;54700;51.796;10.956;2022-07-23T08:57:50;61.59;37.28;70.33;;
67900;Laerm;54700;51.796;10.956;2022-07-23T09:00:19;63.30;38.90;71.45;;
67900;Laerm;54700;51.796;10.956;2022-07-23T09:02:47;60.68;37.97;70.60;;
67900;Laerm;54700;51.796;10.956;2022-07-23T09:05:15;61.45;37.36;73.85;;
67900;Laerm;54700;51.796;10.956;2022-07-23T09:08:08;60.29;39.59;69.53;;
67900;Laerm;54700;51.796;10.956;2022-07-23T09:10:53;67.50;43.19;83.23;;
67900;Laerm;54700;51.796;10.956;2022-07-23T09:13:39;63.97;39.80;75.61;;
67900;Laerm;54700;51.796;10.956;2022-07-23T09:16:10;62.10;35.69;70.83;;
67900;Laerm;54700;51.796;10.956;2022-07-23T09:18:41;64.12;46.20;72.16;;
67900;Laerm;54700;51.796;10.956;2022-07-23T09:21:21;62.16;38.78;70.83;;
67900;Laerm;54700;51.796;10.956;2022-07-23T09:23:57;62.25;40.63;69.93;;
67900;Laerm;54700;51.796;10.956;2022-07-23T09:26:34;64.66;37.73;79.61;;
67900;Laerm;54700;51.796;10.956;2022-07-23T09:29:08;62.71;38.50;76.45;;
67900;Laerm;54700;51.796;10.956;2022-07-23T09:31:43;65.46;38.07;78.18;;
67900;Laerm;54700;51.796;10.956;2022-07-23T09:34:12;64.94;38.30;75.96;;
67900;Laerm;54700;51.796;10.956;2022-07-23T09:36:40;57.89;35.57;67.18;;
67900;Laerm;54700;51.796;10.956;2022-07-23T09:39:09;64.88;45.49;81.57;;
67900;Laerm;54700;51.796;10.956;2022-07-23T09:41:38;63.13;43.39;78.41;;
67900;Laerm;54700;51.796;10.956;2022-07-23T09:44:11;62.89;36.64;70.67;;
67900;Laerm;54700;51.796;10.956;2022-07-23T09:46:39;72.10;33.82;92.68;;
67900;Laerm;54700;51.796;10.956;2022-07-23T09:49:15;62.27;38.33;74.12;;
67900;Laerm;54700;51.796;10.956;2022-07-23T09:51:47;61.57;37.84;74.58;;
67900;Laerm;54700;51.796;10.956;2022-07-23T09:54:37;62.94;40.84;72.07;;
67900;Laerm;54700;51.796;10.956;2022-07-23T09:57:06;59.21;35.32;69.78;;
67900;Laerm;54700;51.796;10.956;2022-07-23T09:59:36;60.25;38.04;71.88;;
67900;Laerm;54700;51.796;10.956;2022-07-23T10:02:04;65.98;37.88;77.94;;
67900;Laerm;54700;51.796;10.956;2022-07-23T10:04:32;60.71;39.04;70.40;;
67900;Laerm;54700;51.796;10.956;2022-07-23T10:07:01;62.57;35.08;73.02;;
67900;Laerm;54700;51.796;10.956;2022-07-23T10:09:31;60.54;33.88;73.48;;
67900;Laerm;54700;51.796;10.956;2022-07-23T10:12:00;62.41;34.93;71.69;;
67900;Laerm;54700;51.796;10.956;2022-07-23T10:14:38;62.15;45.35;70.08;;
67900;Laerm;54700;51.796;10.956;2022-07-23T10:17:04;60.31;35.22;71.21;;
67900;Laerm;54700;51.796;10.956;2022-07-23T10:19:32;60.41;34.74;69.06;;
67900;Laerm;54700;51.796;10.956;2022-07-23T10:22:00;63.12;38.55;75.45;;
67900;Laerm;54700;51.796;10.956;2022-07-23T10:24:38;60.96;34.27;70.39;;
67900;Laerm;54700;51.796;10.956;2022-07-23T10:27:29;63.12;38.46;79.79;;
67900;Laerm;54700;51.796;10.956;2022-07-23T10:30:02;61.76;34.82;70.36;;
67900;Laerm;54700;51.796;10.956;2022-07-23T10:32:39;67.51;37.31;82.22;;
67900;Laerm;54700;51.796;10.956;2022-07-23T10:35:15;60.39;38.77;70.02;;
67900;Laerm;54700;51.796;10.956;2022-07-23T10:37:47;64.58;34.92;78.21;;
67900;Laerm;54700;51.796;10.956;2022-07-23T10:40:17;59.25;41.47;69.24;;
67900;Laerm;54700;51.796;10.956;2022-07-23T10:42:46;62.67;45.19;71.20;;
67900;Laerm;54700;51.796;10.956;2022-07-23T10:45:24;59.51;39.07;69.67;;
67900;Laerm;54700;51.796;10.956;2022-07-23T10:47:52;64.05;38.57;80.69;;
67900;Laerm;54700;51.796;10.956;2022-07-23T10:50:21;60.70;35.53;70.51;;
67900;Laerm;54700;51.796;10.956;2022-07-23T10:53:08;61.41;35.83;71.11;;
67900;Laerm;54700;51.796;10.956;2022-07-23T10:55:42;62.34;41.87;76.13;;
67900;Laerm;54700;51.796;10.956;2022-07-23T10:58:12;61.74;33.59;72.39;;
67900;Laerm;54700;51.796;10.956;2022-07-23T11:00:43;61.94;35.75;70.31;;
67900;Laerm;54700;51.796;10.956;2022-07-23T11:03:28;63.42;35.35;78.98;;
67900;Laerm;54700;51.796;10.956;2022-07-23T11:05:55;61.35;39.02;72.90;;
67900;Laerm;54700;51.796;10.956;2022-07-23T11:08:22;62.21;36.43;74.14;;
67900;Laerm;54700;51.796;10.956;2022-07-23T11:10:54;61.38;40.18;72.68;;
67900;Laerm;54700;51.796;10.956;2022-07-23T11:13:31;61.15;35.88;69.88;;
67900;Laerm;54700;51.796;10.956;2022-07-23T11:16:15;63.63;37.48;77.53;;
67900;Laerm;54700;51.796;10.956;2022-07-23T11:19:00;61.77;39.68;72.86;;
67900;Laerm;54700;51.796;10.956;2022-07-23T11:21:47;61.24;35.89;70.74;;
67900;Laerm;54700;51.796;10.956;2022-07-23T11:24:19;62.12;41.80;78.50;;
67900;Laerm;54700;51.796;10.956;2022-07-23T11:26:49;60.63;37.68;68.97;;
67900;Laerm;54700;51.796;10.956;2022-07-23T11:29:43;62.66;39.83;72.09;;
67900;Laerm;54700;51.796;10.956;2022-07-23T11:32:25;60.28;41.42;71.24;;
67900;Laerm;54700;51.796;10.956;2022-07-23T11:34:54;62.14;38.70;73.29;;
67900;Laerm;54700;51.796;10.956;2022-07-23T11:37:36;61.44;42.13;70.00;;
67900;Laerm;54700;51.796;10.956;2022-07-23T11:40:07;58.66;35.67;71.93;;
67900;Laerm;54700;51.796;10.956;2022-07-23T11:42:36;60.82;37.13;69.67;;
67900;Laerm;54700;51.796;10.956;2022-07-23T11:45:06;61.86;39.45;74.60;;
67900;Laerm;54700;51.796;10.956;2022-07-23T11:47:34;62.04;40.13;71.19;;
67900;Laerm;54700;51.796;10.956;2022-07-23T11:50:02;62.16;35.44;72.98;;
67900;Laerm;54700;51.796;10.956;2022-07-23T11:52:30;62.98;41.25;74.10;;
67900;Laerm;54700;51.796;10.956;2022-07-23T11:54:59;60.28;37.44;71.71;;
67900;Laerm;54700;51.796;10.956;2022-07-23T11:57:30;62.16;38.53;70.26;;
67900;Laerm;54700;51.796;10.956;2022-07-23T12:00:01;59.20;37.38;71.26;;
67900;Laerm;54700;51.796;10.956;2022-07-23T12:02:29;64.97;36.87;81.19;;
67900;Laerm;54700;51.796;10.956;2022-07-23T12:04:56;61.00;36.84;70.44;;
67900;Laerm;54700;51.796;10.956;2022-07-23T12:07:28;61.61;43.98;75.09;;
67900;Laerm;54700;51.796;10.956;2022-07-23T12:09:56;66.49;48.61;82.79;;
67900;Laerm;54700;51.796;10.956;2022-07-23T12:12:23;61.01;35.44;71.79;;
67900;Laerm;54700;51.796;10.956;2022-07-23T12:14:51;61.72;38.09;71.68;;
67900;Laerm;54700;51.796;10.956;2022-07-23T12:17:19;60.89;35.02;71.71;;
67900;Laerm;54700;51.796;10.956;2022-07-23T12:19:48;60.92;34.51;70.18;;
67900;Laerm;54700;51.796;10.956;2022-07-23T12:22:15;61.36;44.27;72.21;;
67900;Laerm;54700;51.796;10.956;2022-07-23T12:24:53;59.09;34.93;71.10;;
67900;Laerm;54700;51.796;10.956;2022-07-23T12:27:20;61.93;36.27;70.95;;
67900;Laerm;54700;51.796;10.956;2022-07-23T12:29:47;60.28;36.07;72.35;;
67900;Laerm;54700;51.796;10.956;2022-07-23T12:32:19;66.68;38.47;79.12;;
67900;Laerm;54700;51.796;10.956;2022-07-23T12:34:49;65.73;40.22;80.97;;
67900;Laerm;54700;51.796;10.956;2022-07-23T12:37:27;62.31;34.63;72.22;;
67900;Laerm;54700;51.796;10.956;2022-07-23T12:39:54;60.26;37.09;68.54;;
67900;Laerm;54700;51.796;10.956;2022-07-23T12:42:20;60.87;36.77;69.48;;
67900;Laerm;54700;51.796;10.956;2022-07-23T12:45:07;60.28;38.35;70.59;;
67900;Laerm;54700;51.796;10.956;2022-07-23T12:48:07;62.26;40.85;72.88;;
67900;Laerm;54700;51.796;10.956;2022-07-23T12:50:42;65.48;40.43;78.85;;
67900;Laerm;54700;51.796;10.956;2022-07-23T12:53:12;64.59;48.32;81.59;;
67900;Laerm;54700;51.796;10.956;2022-07-23T12:55:40;61.16;37.89;72.74;;
67900;Laerm;54700;51.796;10.956;2022-07-23T12:58:09;60.29;36.41;70.74;;
67900;Laerm;54700;51.796;10.956;2022-07-23T13:00:51;62.84;42.70;76.67;;
67900;Laerm;54700;51.796;10.956;2022-07-23T13:03:23;58.55;35.84;76.45;;
67900;Laerm;54700;51.796;10.956;2022-07-23T13:05:52;59.90;41.73;69.76;;
67900;Laerm;54700;51.796;10.956;2022-07-23T13:08:20;61.58;44.83;71.72;;
67900;Laerm;54700;51.796;10.956;2022-07-23T13:10:47;61.76;43.73;75.37;;
67900;Laerm;54700;51.796;10.956;2022-07-23T13:13:17;59.93;41.82;70.20;;
67900;Laerm;54700;51.796;10.956;2022-07-23T13:15:44;62.15;44.52;69.23;;
67900;Laerm;54700;51.796;10.956;2022-07-23T13:18:10;59.79;39.65;69.26;;
67900;Laerm;54700;51.796;10.956;2022-07-23T13:20:37;61.35;39.52;70.13;;
67900;Laerm;54700;51.796;10.956;2022-07-23T13:23:06;59.44;39.34;71.82;;
67900;Laerm;54700;51.796;10.956;2022-07-23T13:25:33;60.82;39.80;70.29;;
67900;Laerm;54700;51.796;10.956;2022-07-23T13:28:00;60.61;41.41;72.02;;
67900;Laerm;54700;51.796;10.956;2022-07-23T13:30:27;61.17;39.41;72.79;;
67900;Laerm;54700;51.796;10.956;2022-07-23T13:32:54;63.25;44.57;80.27;;
67900;Laerm;54700;51.796;10.956;2022-07-23T13:35:21;61.07;37.83;75.14;;
67900;Laerm;54700;51.796;10.956;2022-07-23T13:37:47;61.02;39.63;71.58;;
67900;Laerm;54700;51.796;10.956;2022-07-23T13:40:15;57.02;38.06;69.49;;